createdAt,value
2023-05-03T00:01:24.028Z,58.66
2023-05-03T00:03:53.195Z,57.47
2023-05-03T00:06:22.066Z,58.58
2023-05-03T00:08:49.766Z,58.23
2023-05-03T00:11:17.169Z,58.96
2023-05-03T00:13:45.954Z,58.75
2023-05-03T00:16:13.597Z,58.97
2023-05-03T00:18:41.046Z,59.55
2023-05-03T00:21:08.486Z,61.01
2023-05-03T00:23:35.909Z,61.32
2023-05-03T00:26:03.415Z,61.88
2023-05-03T00:28:31.023Z,61.34
2023-05-03T00:31:07.971Z,60.84
2023-05-03T00:33:35.567Z,61.72
2023-05-03T00:36:09.047Z,61.86
2023-05-03T00:38:36.546Z,61.08
2023-05-03T00:41:04.955Z,61.38
2023-05-03T00:43:32.637Z,62.34
2023-05-03T00:46:15.371Z,63.06
2023-05-03T00:48:44.781Z,63.24
2023-05-03T00:51:15.187Z,61.31
2023-05-03T00:53:43.101Z,61.49
2023-05-03T00:56:11.231Z,62.56
2023-05-03T00:58:40.511Z,62.90
2023-05-03T01:01:09.621Z,63.51
2023-05-03T01:03:41.687Z,62.07
2023-05-03T01:06:14.567Z,62.13
2023-05-03T01:08:48.028Z,62.63
2023-05-03T01:11:22.670Z,62.88
2023-05-03T01:13:55.984Z,64.23
2023-05-03T01:16:31.696Z,62.43
2023-05-03T01:19:05.493Z,62.14
2023-05-03T01:21:35.611Z,61.83
2023-05-03T01:24:09.681Z,61.96
2023-05-03T01:26:38.443Z,61.66
2023-05-03T01:29:06.274Z,61.71
2023-05-03T01:31:39.090Z,61.71
2023-05-03T01:34:19.268Z,62.51
2023-05-03T01:36:47.109Z,63.42
2023-05-03T01:39:20.718Z,63.76
2023-05-03T01:41:51.381Z,64.80
2023-05-03T01:44:20.341Z,65.70
2023-05-03T01:46:48.123Z,66.02
2023-05-03T01:49:16.091Z,64.72
2023-05-03T01:51:43.569Z,63.78
2023-05-03T01:54:11.223Z,64.47
2023-05-03T01:56:39.340Z,65.85
2023-05-03T01:59:08.100Z,64.89
2023-05-03T02:01:36.638Z,64.75
2023-05-03T02:04:04.114Z,65.43
2023-05-03T02:06:31.688Z,67.47
2023-05-03T02:08:59.135Z,66.28
2023-05-03T02:11:26.563Z,66.45
2023-05-03T02:13:54.015Z,65.54
2023-05-03T02:16:22.866Z,64.96
2023-05-03T02:18:51.846Z,66.20
2023-05-03T02:21:19.301Z,65.98
2023-05-03T02:23:46.933Z,66.41
2023-05-03T02:26:14.325Z,67.72
2023-05-03T02:28:41.891Z,68.52
2023-05-03T02:31:09.497Z,69.17
2023-05-03T02:33:38.265Z,68.54
2023-05-03T02:36:06.424Z,68.13
2023-05-03T02:38:34.010Z,67.95
2023-05-03T02:41:01.482Z,68.16
2023-05-03T02:43:28.887Z,67.36
2023-05-03T02:45:57.118Z,67.23
2023-05-03T02:48:24.558Z,66.90
2023-05-03T02:50:54.822Z,66.80
2023-05-03T02:53:22.269Z,66.28
2023-05-03T02:55:50.631Z,66.16
2023-05-03T02:58:18.091Z,66.48
2023-05-03T03:00:45.547Z,66.49
2023-05-03T03:03:13.017Z,66.19
2023-05-03T03:05:40.564Z,68.12
2023-05-03T03:08:09.297Z,67.27
2023-05-03T03:10:36.870Z,66.95
2023-05-03T03:13:04.328Z,66.90
2023-05-03T03:15:31.758Z,67.62
2023-05-03T03:17:59.189Z,66.76
2023-05-03T03:20:26.612Z,66.89
2023-05-03T03:22:54.121Z,67.74
2023-05-03T03:25:22.886Z,68.27
2023-05-03T03:27:50.404Z,67.55
2023-05-03T03:30:17.936Z,68.00
2023-05-03T03:32:45.371Z,67.84
2023-05-03T03:35:13.064Z,67.61
2023-05-03T03:37:40.674Z,66.28
2023-05-03T03:40:09.805Z,66.88
2023-05-03T03:42:38.669Z,67.41
2023-05-03T03:45:06.958Z,66.57
2023-05-03T03:47:34.392Z,66.29
2023-05-03T03:50:02.561Z,66.25
2023-05-03T03:52:30.688Z,65.70
2023-05-03T03:54:58.143Z,66.81
2023-05-03T03:57:29.693Z,66.06
2023-05-03T03:59:59.136Z,64.96
2023-05-03T04:02:26.957Z,65.21
2023-05-03T04:04:54.426Z,64.14
2023-05-03T04:07:22.147Z,64.93
2023-05-03T04:09:49.540Z,65.71
2023-05-03T04:12:16.935Z,65.10
2023-05-03T04:14:44.409Z,65.48
2023-05-03T04:17:13.211Z,65.28
2023-05-03T04:19:40.845Z,64.48
2023-05-03T04:22:08.278Z,63.57
2023-05-03T04:24:39.718Z,63.15
2023-05-03T04:27:08.824Z,63.46
2023-05-03T04:29:38.488Z,65.16
2023-05-03T04:32:08.395Z,65.60
2023-05-03T04:34:37.703Z,66.99
2023-05-03T04:37:05.272Z,64.15
2023-05-03T04:39:32.729Z,64.41
2023-05-03T04:42:00.169Z,65.51
2023-05-03T04:44:27.790Z,66.57
2023-05-03T04:46:55.234Z,64.98
2023-05-03T04:49:22.647Z,65.51
2023-05-03T04:51:51.374Z,65.24
2023-05-03T04:54:18.795Z,67.79
2023-05-03T04:56:46.347Z,68.28
2023-05-03T04:59:13.749Z,67.32
2023-05-03T05:01:41.368Z,67.85
2023-05-03T05:04:09.123Z,66.17
2023-05-03T05:06:36.823Z,66.61
2023-05-03T05:09:08.249Z,65.30
2023-05-03T05:11:35.751Z,66.91
2023-05-03T05:14:03.496Z,66.81
2023-05-03T05:16:31.427Z,65.39
2023-05-03T05:18:59.046Z,62.69
2023-05-03T05:21:26.955Z,62.94
2023-05-03T05:23:54.374Z,63.35
2023-05-03T05:26:23.188Z,63.96
2023-05-03T05:28:50.830Z,64.83
2023-05-03T05:31:18.517Z,65.38
2023-05-03T05:33:46.596Z,63.80
2023-05-03T05:36:14.753Z,62.63
2023-05-03T05:38:42.759Z,62.47
2023-05-03T05:41:10.308Z,63.17
2023-05-03T05:43:39.031Z,60.17
2023-05-03T05:46:06.460Z,60.28
2023-05-03T05:48:33.862Z,62.00
2023-05-03T05:51:01.340Z,60.04
2023-05-03T05:53:28.787Z,56.47
2023-05-03T05:55:56.490Z,57.16
2023-05-03T05:58:23.952Z,59.27
2023-05-03T06:00:52.863Z,57.00
2023-05-03T06:03:20.528Z,59.10
2023-05-03T06:05:48.279Z,59.88
2023-05-03T06:08:15.787Z,56.94
2023-05-03T06:10:43.324Z,57.51
2023-05-03T06:13:10.825Z,58.80
2023-05-03T06:15:38.317Z,59.37
2023-05-03T06:18:07.426Z,55.70
2023-05-03T06:20:34.918Z,57.24
2023-05-03T06:23:02.423Z,58.23
2023-05-03T06:25:29.817Z,59.09
2023-05-03T06:27:57.234Z,58.98
2023-05-03T06:30:25.690Z,58.59
2023-05-03T06:32:53.276Z,58.22
2023-05-03T06:35:22.288Z,58.52
2023-05-03T06:37:49.945Z,60.13
2023-05-03T06:40:18.166Z,59.32
2023-05-03T06:42:45.755Z,58.95
2023-05-03T06:45:13.155Z,60.92
2023-05-03T06:47:42.797Z,63.07
2023-05-03T06:50:11.286Z,62.90
2023-05-03T06:52:40.039Z,61.78
2023-05-03T06:55:09.415Z,62.87
2023-05-03T06:57:36.830Z,61.97
2023-05-03T07:00:07.357Z,61.44
2023-05-03T07:02:34.950Z,61.01
2023-05-03T07:05:03.082Z,57.96
2023-05-03T07:07:30.844Z,59.19
2023-05-03T07:09:59.724Z,60.85
2023-05-03T07:12:28.398Z,60.25
2023-05-03T07:14:56.643Z,60.03
2023-05-03T07:17:24.569Z,60.26
2023-05-03T07:19:52.513Z,58.12
2023-05-03T07:22:21.223Z,58.15
2023-05-03T07:24:48.675Z,60.45
2023-05-03T07:27:17.428Z,59.32
2023-05-03T07:29:44.832Z,58.04
2023-05-03T07:32:12.889Z,56.27
2023-05-03T07:34:40.454Z,57.66
2023-05-03T07:37:07.884Z,58.10
2023-05-03T07:39:36.370Z,56.31
2023-05-03T07:42:03.816Z,58.04
2023-05-03T07:44:32.854Z,57.13
2023-05-03T07:47:00.291Z,57.38
2023-05-03T07:49:27.713Z,56.68
2023-05-03T07:51:55.124Z,56.88
2023-05-03T07:54:22.508Z,55.66
2023-05-03T07:56:49.919Z,53.16
2023-05-03T07:59:17.316Z,53.70
2023-05-03T08:01:46.300Z,52.68
2023-05-03T08:04:13.992Z,52.71
2023-05-03T08:06:43.029Z,51.45
2023-05-03T08:09:11.582Z,53.58
2023-05-03T08:11:39.806Z,53.98
2023-05-03T08:14:08.435Z,53.06
2023-05-03T08:16:35.882Z,54.26
2023-05-03T08:19:05.005Z,55.41
2023-05-03T08:21:33.374Z,53.88
2023-05-03T08:24:02.070Z,54.96
2023-05-03T08:26:29.914Z,53.15
2023-05-03T08:28:57.387Z,54.18
2023-05-03T08:31:24.831Z,53.02
2023-05-03T08:33:52.301Z,52.54
2023-05-03T08:36:21.248Z,50.78
2023-05-03T08:38:48.653Z,50.04
2023-05-03T08:41:23.451Z,53.50
2023-05-03T08:43:54.248Z,52.94
2023-05-03T08:46:22.312Z,51.55
2023-05-03T08:48:50.917Z,51.87
2023-05-03T08:51:18.705Z,53.21
2023-05-03T08:53:47.475Z,53.96
2023-05-03T08:56:21.232Z,53.23
2023-05-03T08:58:48.632Z,52.55
2023-05-03T09:03:57.750Z,53.20
2023-05-03T09:06:27.157Z,51.36
2023-05-03T09:08:56.239Z,51.68
2023-05-03T09:11:24.937Z,52.85
2023-05-03T09:13:53.388Z,51.59
2023-05-03T09:16:27.270Z,51.01
2023-05-03T09:18:59.064Z,50.17
2023-05-03T09:21:26.650Z,48.52
2023-05-03T09:23:55.996Z,50.19
2023-05-03T09:26:30.899Z,48.39
2023-05-03T09:28:59.507Z,47.34
2023-05-03T09:31:27.222Z,48.01
2023-05-03T09:33:54.837Z,47.10
2023-05-03T09:36:22.397Z,50.66
2023-05-03T09:38:50.308Z,48.70
2023-05-03T09:41:28.201Z,49.97
2023-05-03T09:43:56.816Z,49.70
2023-05-03T09:46:26.167Z,48.78
2023-05-03T09:48:56.852Z,47.73
2023-05-03T09:51:25.049Z,47.26
2023-05-03T09:53:53.241Z,48.36
2023-05-03T09:56:26.461Z,49.78
2023-05-03T09:58:54.904Z,50.89
2023-05-03T10:01:25.195Z,48.49
2023-05-03T10:03:54.368Z,49.26
2023-05-03T10:06:26.733Z,50.22
2023-05-03T10:08:58.397Z,49.55
2023-05-03T10:11:27.903Z,49.70
2023-05-03T10:13:56.075Z,49.35
2023-05-03T10:16:28.815Z,49.55
2023-05-03T10:19:05.483Z,52.22
2023-05-03T10:21:43.194Z,50.85
2023-05-03T10:24:12.631Z,49.01
2023-05-03T10:26:43.003Z,48.34
2023-05-03T10:29:49.132Z,48.31
2023-05-03T10:32:30.972Z,49.20
2023-05-03T10:35:00.664Z,48.35
2023-05-03T10:37:31.329Z,49.60
2023-05-03T10:40:07.231Z,50.50
2023-05-03T10:42:36.275Z,50.52
2023-05-03T10:45:04.490Z,48.60
2023-05-03T10:47:32.144Z,49.79
2023-05-03T10:50:27.316Z,49.79
2023-05-03T10:52:54.803Z,49.13
2023-05-03T10:55:24.740Z,46.19
2023-05-03T10:57:57.640Z,44.56
2023-05-03T11:00:31.100Z,47.88
2023-05-03T11:03:31.253Z,47.94
2023-05-03T11:05:59.184Z,48.84
2023-05-03T11:08:27.908Z,50.07
2023-05-03T11:11:00.095Z,49.37
2023-05-03T11:13:29.232Z,48.68
2023-05-03T11:15:57.310Z,49.89
2023-05-03T11:18:27.112Z,51.15
2023-05-03T11:20:54.940Z,49.76
2023-05-03T11:23:26.918Z,49.60
2023-05-03T11:25:54.432Z,49.69
2023-05-03T11:28:21.905Z,49.32
2023-05-03T11:30:51.369Z,50.04
2023-05-03T11:33:18.838Z,50.44
2023-05-03T11:35:46.861Z,50.12
2023-05-03T11:38:14.297Z,48.84
2023-05-03T11:40:41.834Z,47.77
2023-05-03T11:43:09.341Z,45.69
2023-05-03T11:45:42.286Z,45.82
2023-05-03T11:48:13.060Z,44.90
2023-05-03T11:50:48.601Z,43.74
2023-05-03T11:53:16.989Z,44.35
2023-05-03T11:55:48.002Z,44.40
2023-05-03T11:58:17.577Z,43.80
2023-05-03T12:00:46.523Z,45.10
2023-05-03T12:03:19.846Z,45.53
2023-05-03T12:05:48.465Z,46.58
2023-05-03T12:08:20.643Z,47.17
2023-05-03T12:10:50.902Z,46.25
2023-05-03T12:13:30.018Z,45.54
2023-05-03T12:18:51.709Z,45.62
2023-05-03T12:23:55.489Z,44.88
2023-05-03T12:26:25.246Z,43.15
2023-05-03T12:28:56.073Z,45.49
2023-05-03T12:31:24.466Z,45.44
2023-05-03T12:36:26.136Z,44.75
2023-05-03T12:38:56.592Z,45.91
2023-05-03T12:42:04.737Z,46.30
2023-05-03T12:44:16.650Z,46.99
2023-05-03T12:46:45.531Z,46.31
2023-05-03T12:49:15.626Z,46.55
2023-05-03T12:51:43.641Z,45.72
2023-05-03T12:54:11.697Z,45.68
2023-05-03T12:56:40.884Z,45.24
2023-05-03T13:02:40.928Z,43.65
2023-05-03T13:07:00.146Z,45.89
2023-05-03T13:09:38.631Z,45.18
2023-05-03T13:12:17.970Z,43.13
2023-05-03T13:14:45.568Z,44.82
2023-05-03T13:17:13.382Z,45.61
2023-05-03T13:19:43.562Z,45.46
2023-05-03T13:22:11.336Z,47.35
2023-05-03T13:24:38.834Z,47.20
2023-05-03T13:27:06.514Z,46.80
2023-05-03T13:29:34.583Z,44.57
2023-05-03T13:32:02.098Z,44.29
2023-05-03T13:34:30.032Z,47.19
2023-05-03T13:36:58.819Z,47.11
2023-05-03T13:39:26.489Z,47.41
2023-05-03T13:41:53.927Z,45.95
2023-05-03T13:44:25.177Z,45.21
2023-05-03T13:46:53.471Z,44.32
2023-05-03T13:49:21.172Z,46.22
2023-05-03T13:51:48.611Z,46.53
2023-05-03T13:54:17.400Z,44.50
2023-05-03T13:56:44.854Z,45.26
2023-05-03T13:59:13.822Z,48.02
2023-05-03T14:01:43.178Z,47.94
2023-05-03T14:04:11.234Z,46.49
2023-05-03T14:06:41.136Z,46.42
2023-05-03T14:09:09.520Z,46.92
2023-05-03T14:11:39.818Z,45.87
2023-05-03T14:14:07.412Z,45.11
2023-05-03T14:19:05.253Z,45.22
2023-05-03T14:21:32.837Z,46.51
2023-05-03T14:24:00.348Z,45.49
2023-05-03T14:26:29.313Z,46.48
2023-05-03T14:28:59.675Z,45.35
2023-05-03T14:31:27.152Z,45.31
2023-05-03T14:33:55.003Z,45.49
2023-05-03T14:36:23.081Z,44.71
2023-05-03T14:38:50.649Z,44.64
2023-05-03T14:41:18.059Z,45.33
2023-05-03T14:43:45.498Z,46.54
2023-05-03T14:46:14.255Z,46.35
2023-05-03T14:48:41.807Z,45.08
2023-05-03T14:51:09.217Z,45.56
2023-05-03T14:53:36.649Z,44.75
2023-05-03T14:56:04.286Z,44.52
2023-05-03T14:58:32.984Z,43.37
2023-05-03T15:01:01.114Z,44.94
2023-05-03T15:03:30.534Z,44.59
2023-05-03T15:05:57.979Z,42.35
2023-05-03T15:08:25.385Z,43.38
2023-05-03T15:10:52.852Z,43.13
2023-05-03T15:13:20.547Z,42.56
2023-05-03T15:15:48.078Z,43.08
2023-05-03T15:18:18.626Z,42.57
2023-05-03T15:20:47.765Z,42.77
2023-05-03T15:23:15.267Z,42.89
2023-05-03T15:25:42.719Z,43.25
2023-05-03T15:28:10.137Z,42.40
2023-05-03T15:30:37.548Z,44.04
2023-05-03T15:33:05.378Z,44.71
2023-05-03T15:35:32.863Z,44.43
2023-05-03T15:38:01.714Z,45.94
2023-05-03T15:40:29.534Z,45.91
2023-05-03T15:42:56.975Z,44.11
2023-05-03T15:45:26.135Z,45.19
2023-05-03T15:47:53.652Z,44.35
2023-05-03T15:50:21.375Z,44.90
2023-05-03T15:52:48.822Z,43.72
2023-05-03T15:55:18.974Z,43.50
2023-05-03T15:57:46.519Z,43.25
2023-05-03T16:00:17.625Z,42.90
2023-05-03T16:02:45.073Z,42.50
2023-05-03T16:05:12.662Z,42.97
2023-05-03T16:07:40.359Z,44.93
2023-05-03T16:10:10.080Z,44.45
2023-05-03T16:12:38.935Z,43.80
2023-05-03T16:15:07.941Z,44.58
2023-05-03T16:17:36.386Z,45.22
2023-05-03T16:20:05.773Z,45.75
2023-05-03T16:22:33.413Z,44.62
2023-05-03T16:25:00.886Z,43.37
2023-05-03T16:27:28.281Z,44.05
2023-05-03T16:29:58.914Z,43.74
2023-05-03T16:32:26.714Z,42.31
2023-05-03T16:34:54.447Z,43.09
2023-05-03T16:37:22.427Z,43.49
2023-05-03T16:39:49.860Z,43.31
2023-05-03T16:42:18.152Z,42.92
2023-05-03T16:44:46.523Z,43.26
2023-05-03T16:47:15.716Z,43.94
2023-05-03T16:49:43.409Z,46.03
2023-05-03T16:52:11.284Z,45.38
2023-05-03T16:54:38.776Z,45.20
2023-05-03T16:57:06.636Z,45.93
2023-05-03T16:59:34.143Z,45.13
2023-05-03T17:02:01.641Z,45.20
2023-05-03T17:04:30.458Z,45.94
2023-05-03T17:06:57.865Z,46.34
2023-05-03T17:09:25.277Z,46.72
2023-05-03T17:11:52.650Z,46.15
2023-05-03T17:14:20.148Z,46.10
2023-05-03T17:16:49.018Z,46.71
2023-05-03T17:19:18.086Z,47.51
2023-05-03T17:21:46.766Z,47.71
2023-05-03T17:24:14.135Z,46.72
2023-05-03T17:26:41.575Z,47.63
2023-05-03T17:29:09.003Z,46.11
2023-05-03T17:31:36.491Z,48.25
2023-05-03T17:34:03.961Z,48.07
2023-05-03T17:36:31.648Z,48.39
2023-05-03T17:39:00.396Z,48.21
2023-05-03T17:41:27.797Z,49.21
2023-05-03T17:43:55.186Z,50.04
2023-05-03T17:46:22.701Z,49.85
2023-05-03T17:48:50.111Z,50.91
2023-05-03T17:51:17.632Z,49.32
2023-05-03T17:53:45.046Z,48.68
2023-05-03T17:56:18.059Z,49.13
2023-05-03T17:58:46.516Z,50.44
2023-05-03T18:01:15.766Z,51.03
2023-05-03T18:03:43.787Z,50.03
2023-05-03T18:06:13.197Z,50.45
2023-05-03T18:08:41.354Z,50.27
2023-05-03T18:11:09.282Z,49.84
2023-05-03T18:13:38.100Z,50.10
2023-05-03T18:16:07.455Z,51.22
2023-05-03T18:18:35.076Z,50.59
2023-05-03T18:21:04.423Z,50.27
2023-05-03T18:23:32.714Z,52.21
2023-05-03T18:26:00.720Z,51.26
2023-05-03T18:28:28.256Z,50.80
2023-05-03T18:30:57.492Z,50.92
2023-05-03T18:33:25.207Z,51.30
2023-05-03T18:35:53.536Z,52.04
2023-05-03T18:38:21.773Z,53.11
2023-05-03T18:40:50.481Z,53.33
2023-05-03T18:46:52.751Z,54.07
2023-05-03T18:49:20.244Z,53.62
2023-05-03T18:51:47.767Z,54.03
2023-05-03T18:54:15.154Z,53.08
2023-05-03T18:56:42.825Z,52.55
2023-05-03T18:59:10.714Z,52.78
2023-05-03T19:01:38.404Z,53.28
2023-05-03T19:04:07.950Z,52.87
2023-05-03T19:06:35.490Z,53.49
2023-05-03T19:09:03.386Z,52.67
2023-05-03T19:11:30.828Z,53.66
2023-05-03T19:13:58.247Z,53.09
2023-05-03T19:21:20.447Z,52.41
2023-05-03T19:23:48.211Z,52.64
2023-05-03T19:26:15.637Z,53.68
2023-05-03T19:29:00.630Z,53.43
2023-05-03T19:31:28.157Z,52.61
2023-05-03T19:33:55.595Z,53.03
2023-05-03T19:36:24.385Z,53.31
2023-05-03T19:38:51.827Z,53.44
2023-05-03T19:41:19.441Z,53.31
2023-05-03T19:43:46.910Z,53.76
2023-05-03T19:46:16.224Z,53.65
2023-05-03T19:48:49.866Z,53.94
2023-05-03T19:51:18.311Z,54.36
2023-05-03T19:53:48.935Z,54.45
2023-05-03T19:56:18.336Z,54.29
2023-05-03T19:58:46.281Z,54.84
2023-05-03T20:01:13.750Z,53.70
2023-05-03T20:04:02.943Z,54.39
2023-05-03T20:07:11.655Z,54.91
2023-05-03T20:09:40.427Z,55.19
2023-05-03T20:12:08.591Z,55.85
2023-05-03T20:14:36.131Z,56.00
2023-05-03T20:17:04.072Z,55.69
2023-05-03T20:19:31.706Z,56.23
2023-05-03T20:23:38.815Z,56.51
2023-05-03T20:26:05.520Z,56.75
2023-05-03T20:28:35.007Z,57.30
2023-05-03T20:31:02.857Z,57.42
2023-05-03T20:33:30.254Z,57.24
2023-05-03T20:35:57.708Z,59.00
2023-05-03T20:38:25.140Z,57.65
2023-05-03T20:40:52.636Z,57.37
2023-05-03T20:43:21.422Z,57.91
2023-05-03T20:45:48.908Z,56.99
2023-05-03T20:48:16.475Z,58.32
2023-05-03T20:50:44.386Z,59.22
2023-05-03T20:53:11.819Z,59.59
2023-05-03T20:55:39.452Z,59.45
2023-05-03T20:58:06.834Z,59.73
2023-05-03T21:00:35.566Z,59.40
2023-05-03T21:03:03.485Z,60.08
2023-05-03T21:05:30.999Z,59.89
2023-05-03T21:07:58.394Z,59.14
2023-05-03T21:10:26.026Z,59.62
2023-05-03T21:12:53.435Z,60.34
2023-05-03T21:15:20.908Z,60.97
2023-05-03T21:17:49.764Z,61.66
2023-05-03T21:20:17.450Z,60.84
2023-05-03T21:22:44.998Z,60.26
2023-05-03T21:25:12.426Z,59.68
2023-05-03T21:27:39.813Z,59.47
2023-05-03T21:30:08.791Z,61.73
2023-05-03T21:32:36.292Z,60.33
2023-05-03T21:35:05.682Z,59.45
2023-05-03T21:37:33.140Z,59.67
2023-05-03T21:40:02.511Z,59.73
2023-05-03T21:42:30.462Z,59.83
2023-05-03T21:44:57.872Z,60.03
2023-05-03T21:47:25.442Z,60.86
2023-05-03T21:49:52.875Z,61.81
2023-05-03T21:52:21.598Z,61.14
2023-05-03T21:54:49.080Z,60.63
2023-05-03T21:57:18.813Z,61.16
2023-05-03T21:59:46.693Z,60.99
2023-05-03T22:02:14.146Z,60.50
2023-05-03T22:04:41.519Z,61.25
2023-05-03T22:07:09.149Z,62.07
2023-05-03T22:09:37.856Z,61.88
2023-05-03T22:12:15.538Z,62.40
2023-05-03T22:14:49.622Z,63.72
2023-05-03T22:17:17.040Z,70.61
2023-05-03T22:19:44.495Z,65.94
2023-05-03T22:22:12.078Z,70.14
2023-05-03T22:24:41.599Z,63.46
2023-05-03T22:27:09.042Z,68.00
2023-05-03T22:29:36.479Z,63.31
2023-05-03T22:32:04.129Z,61.35
2023-05-03T22:34:31.607Z,65.26
2023-05-03T22:36:59.035Z,62.52
2023-05-03T22:39:26.713Z,66.24
2023-05-03T22:41:55.446Z,64.69
2023-05-03T22:44:22.850Z,63.54
2023-05-03T22:46:50.433Z,62.61
2023-05-03T22:49:17.858Z,64.40
2023-05-03T22:51:45.440Z,63.17
2023-05-03T22:54:12.877Z,65.75
2023-05-03T22:56:40.288Z,67.08
2023-05-03T22:59:09.139Z,66.89
2023-05-03T23:01:37.473Z,66.47
2023-05-03T23:04:05.451Z,65.66
2023-05-03T23:06:32.912Z,63.77
2023-05-03T23:09:01.019Z,67.06
2023-05-03T23:11:28.427Z,66.50
2023-05-03T23:13:55.811Z,66.48
2023-05-03T23:16:24.897Z,66.77
2023-05-03T23:18:55.442Z,65.39
2023-05-03T23:21:23.208Z,64.29
2023-05-03T23:23:50.611Z,65.13
2023-05-03T23:26:18.044Z,67.37
2023-05-03T23:28:46.182Z,66.47
2023-05-03T23:31:14.102Z,64.88
2023-05-03T23:33:43.181Z,65.35
2023-05-03T23:36:11.306Z,66.39
2023-05-03T23:38:38.840Z,67.03
2023-05-03T23:41:06.411Z,68.95
2023-05-03T23:43:33.793Z,68.27
2023-05-03T23:46:01.293Z,70.12
2023-05-03T23:48:28.696Z,70.61
2023-05-03T23:50:57.407Z,70.72
2023-05-03T23:53:24.807Z,69.45
2023-05-03T23:55:52.475Z,69.80
2023-05-03T23:58:19.877Z,68.85
